Time;durP1;ratioP1;P1;durP2;ratioP2;P2;SDS_P1;SDS_P2;PMS_P1;PMS_P2;Temp;Humidity;BMP_temperature;BMP_pressure;BME280_temperature;BME280_humidity;BME280_pressure;Samples;Min_cycle;Max_cycle;Signal;HPM_P1;HPM_P2
2022/04/14 00:02:26;;;;;;;16.87;9.37;;;13.80;72.10;;;;;;5016464;28;20507;-71
2022/04/14 00:04:54;;;;;;;13.77;8.53;;;13.80;72.10;;;;;;5014943;28;20528;-71
2022/04/14 00:07:22;;;;;;;15.87;9.90;;;13.80;72.10;;;;;;5014823;28;20529;-71
2022/04/14 00:09:50;;;;;;;16.40;11.27;;;13.80;72.10;;;;;;5015319;28;20469;-71
2022/04/14 00:12:20;;;;;;;15.57;9.70;;;13.80;72.10;;;;;;5012283;28;20491;-71
2022/04/14 00:14:48;;;;;;;11.60;8.30;;;13.80;72.00;;;;;;5012682;28;20455;-71
2022/04/14 00:17:15;;;;;;;13.20;9.43;;;13.70;71.90;;;;;;5016831;28;20536;-71
2022/04/14 00:19:44;;;;;;;13.43;8.93;;;13.60;72.00;;;;;;5017721;28;20864;-72
2022/04/14 00:22:11;;;;;;;11.60;8.30;;;13.60;72.10;;;;;;5012676;28;20484;-72
2022/04/14 00:24:39;;;;;;;13.53;9.10;;;13.60;72.30;;;;;;5014462;28;20471;-72
2022/04/14 00:27:07;;;;;;;11.97;8.60;;;13.50;72.30;;;;;;5019078;28;20480;-72
2022/04/14 00:29:36;;;;;;;12.10;9.10;;;13.50;72.40;;;;;;5019980;28;20457;-72
2022/04/14 00:32:05;;;;;;;12.57;9.97;;;13.50;72.50;;;;;;5011649;28;20496;-72
2022/04/14 00:34:33;;;;;;;13.93;9.93;;;13.50;72.50;;;;;;5017421;28;20463;-72
2022/04/14 00:37:01;;;;;;;14.10;10.00;;;13.50;72.60;;;;;;5016457;28;20469;-72
2022/04/14 00:39:29;;;;;;;17.10;11.00;;;13.50;72.70;;;;;;5010489;28;20482;-72
2022/04/14 00:41:57;;;;;;;17.90;10.10;;;13.50;72.70;;;;;;5013596;28;20507;-71
2022/04/14 00:44:25;;;;;;;14.63;9.30;;;13.50;72.80;;;;;;5011521;28;20468;-72
2022/04/14 00:46:54;;;;;;;13.60;7.83;;;13.50;72.70;;;;;;5012454;28;20485;-72
2022/04/14 00:49:22;;;;;;;10.50;7.27;;;13.50;72.60;;;;;;5015089;28;20459;-72
2022/04/14 00:51:50;;;;;;;9.50;7.40;;;13.50;72.50;;;;;;5016095;28;20547;-71
2022/04/14 00:54:18;;;;;;;12.47;8.33;;;13.40;72.50;;;;;;5016082;28;20541;-70
2022/04/14 00:56:46;;;;;;;13.20;8.43;;;13.40;72.50;;;;;;5013879;28;20874;-71
2022/04/14 00:59:14;;;;;;;11.10;8.40;;;13.30;72.50;;;;;;5015489;28;21222;-71
2022/04/14 01:01:42;;;;;;;13.37;8.43;;;13.30;72.50;;;;;;5013880;28;20497;-72
2022/04/14 01:04:13;;;;;;;14.40;8.13;;;13.20;72.30;;;;;;5017879;28;20478;-70
2022/04/14 01:06:41;;;;;;;13.90;7.87;;;13.00;72.30;;;;;;5017397;28;20470;-70
2022/04/14 01:09:19;;;;;;;12.13;8.10;;;12.90;72.50;;;;;;5011005;28;20476;-71
2022/04/14 01:11:49;;;;;;;19.03;12.30;;;12.80;72.70;;;;;;5013701;28;20496;-72
2022/04/14 01:14:21;;;;;;;23.13;12.20;;;12.80;72.90;;;;;;5014142;28;21058;-72
2022/04/14 01:16:49;;;;;;;16.43;11.00;;;12.80;73.00;;;;;;5014868;28;20860;-72
2022/04/14 01:19:18;;;;;;;15.90;10.73;;;12.80;73.10;;;;;;5020101;28;20532;-72
2022/04/14 01:21:54;;;;;;;14.03;9.50;;;12.80;73.10;;;;;;5018759;28;20980;-72
2022/04/14 01:24:23;;;;;;;11.63;8.83;;;12.70;73.10;;;;;;5020121;28;20533;-73
2022/04/14 01:26:52;;;;;;;12.13;9.67;;;12.70;73.20;;;;;;5015714;28;20484;-72
2022/04/14 01:29:22;;;;;;;13.00;9.87;;;12.70;73.30;;;;;;5024767;28;20482;-72
2022/04/14 01:31:50;;;;;;;13.73;8.77;;;12.80;73.30;;;;;;5016595;28;20487;-72
2022/04/14 01:34:18;;;;;;;11.77;8.50;;;12.80;73.30;;;;;;5015274;28;20459;-72
2022/04/14 01:36:46;;;;;;;10.63;7.97;;;12.80;73.20;;;;;;5029670;28;20457;-72
2022/04/14 01:39:14;;;;;;;12.90;7.20;;;12.80;73.10;;;;;;5012433;28;20475;-72
2022/04/14 01:41:45;;;;;;;11.03;7.00;;;12.70;73.10;;;;;;5010917;28;20484;-72
2022/04/14 01:44:13;;;;;;;9.63;7.20;;;12.70;73.10;;;;;;5009480;28;20467;-71
2022/04/14 01:46:41;;;;;;;12.70;7.63;;;12.70;73.10;;;;;;5012523;28;21014;-72
2022/04/14 01:49:09;;;;;;;11.03;7.70;;;12.70;73.00;;;;;;5013386;28;20982;-70
2022/04/14 01:51:37;;;;;;;11.50;7.20;;;12.60;73.00;;;;;;5013846;28;20488;-71
2022/04/14 01:54:07;;;;;;;15.33;8.07;;;12.60;73.00;;;;;;5009760;28;20965;-71
2022/04/14 01:56:35;;;;;;;11.00;8.20;;;12.60;73.00;;;;;;5014605;28;20580;-71
2022/04/14 01:59:04;;;;;;;11.90;7.90;;;12.60;72.90;;;;;;5022237;28;21085;-71
2022/04/14 02:01:32;;;;;;;16.43;8.63;;;12.50;73.00;;;;;;5014077;28;20488;-71
2022/04/14 02:04:02;;;;;;;15.10;8.90;;;12.50;72.90;;;;;;5011993;28;20468;-72
2022/04/14 02:06:30;;;;;;;10.50;7.80;;;12.50;72.80;;;;;;5014497;28;20824;-70
2022/04/14 02:08:58;;;;;;;8.23;6.20;;;12.40;72.80;;;;;;5011338;28;20476;-70
2022/04/14 02:11:27;;;;;;;10.30;6.47;;;12.40;73.00;;;;;;5015229;28;20489;-72
2022/04/14 02:13:55;;;;;;;11.03;7.73;;;12.30;73.10;;;;;;5010677;28;20464;-73
2022/04/14 02:16:25;;;;;;;12.77;6.90;;;12.30;73.00;;;;;;5017475;28;20491;-71
2022/04/14 02:18:53;;;;;;;12.07;6.63;;;12.30;73.00;;;;;;5018752;28;20463;-72
2022/04/14 02:21:22;;;;;;;11.97;6.90;;;12.20;72.80;;;;;;5016288;28;21930;-72
2022/04/14 02:23:50;;;;;;;12.50;6.97;;;12.20;72.90;;;;;;5015330;28;20449;-72
2022/04/14 02:26:19;;;;;;;8.40;6.13;;;12.10;72.90;;;;;;5016338;28;21675;-72
2022/04/14 02:28:47;;;;;;;9.70;6.97;;;12.10;73.00;;;;;;5011969;28;20472;-72
2022/04/14 02:31:15;;;;;;;14.10;7.67;;;12.00;72.90;;;;;;5014085;28;20547;-72
2022/04/14 02:33:44;;;;;;;9.83;7.00;;;12.00;73.00;;;;;;5013500;28;20460;-72
2022/04/14 02:36:12;;;;;;;10.13;6.73;;;12.00;73.00;;;;;;5012667;28;20579;-72
2022/04/14 02:38:43;;;;;;;8.77;6.30;;;12.00;73.10;;;;;;5016879;28;20983;-72
2022/04/14 02:41:11;;;;;;;10.53;6.63;;;11.90;72.90;;;;;;5012925;28;20479;-72
2022/04/14 02:43:39;;;;;;;15.50;6.53;;;11.80;72.90;;;;;;5015039;28;20479;-72
2022/04/14 02:46:08;;;;;;;13.10;6.50;;;11.80;73.10;;;;;;5016853;28;20495;-72
2022/04/14 02:48:36;;;;;;;9.87;6.10;;;11.70;73.10;;;;;;5019182;28;20471;-72
2022/04/14 02:51:05;;;;;;;10.80;7.00;;;11.70;73.40;;;;;;5025042;28;20539;-72
2022/04/14 02:53:33;;;;;;;10.30;6.97;;;11.70;73.50;;;;;;5013384;28;21173;-72
2022/04/14 02:56:02;;;;;;;11.43;7.07;;;11.80;73.60;;;;;;5018528;28;20468;-72
2022/04/14 02:58:30;;;;;;;15.53;7.13;;;11.90;73.60;;;;;;5016420;28;20455;-72
2022/04/14 03:00:58;;;;;;;10.90;7.30;;;11.90;73.40;;;;;;5032090;28;20559;-72
2022/04/14 03:03:28;;;;;;;8.37;7.00;;;11.80;73.40;;;;;;5023269;28;20455;-72
2022/04/14 03:05:56;;;;;;;10.47;6.77;;;11.80;73.30;;;;;;5022027;28;20445;-72
2022/04/14 03:08:25;;;;;;;10.60;6.87;;;11.70;73.30;;;;;;5019458;28;20463;-72
2022/04/14 03:10:55;;;;;;;8.57;6.53;;;11.60;73.30;;;;;;5018958;28;20837;-72
2022/04/14 03:13:23;;;;;;;11.10;7.20;;;11.60;73.40;;;;;;5014404;28;20473;-72
2022/04/14 03:15:51;;;;;;;9.63;7.17;;;11.50;73.50;;;;;;5017792;28;20487;-72
2022/04/14 03:18:19;;;;;;;12.80;6.70;;;11.50;73.50;;;;;;5018512;28;20544;-72
2022/04/14 03:20:47;;;;;;;12.43;6.70;;;11.40;73.60;;;;;;5014647;28;20507;-72
2022/04/14 03:23:15;;;;;;;9.67;6.93;;;11.40;73.80;;;;;;5014323;28;20536;-72
2022/04/14 03:25:45;;;;;;;12.90;7.10;;;11.50;73.90;;;;;;5016583;28;20460;-72
2022/04/14 03:28:13;;;;;;;9.70;6.87;;;11.50;74.00;;;;;;5014697;28;20456;-72
2022/04/14 03:30:42;;;;;;;12.40;7.47;;;11.60;73.90;;;;;;5014316;28;20495;-72
2022/04/14 03:33:10;;;;;;;9.90;6.80;;;11.50;73.80;;;;;;5021601;28;20542;-72
2022/04/14 03:35:37;;;;;;;11.60;6.17;;;11.50;73.80;;;;;;5024666;28;20912;-72
2022/04/14 03:38:06;;;;;;;11.57;7.03;;;11.50;73.90;;;;;;5017294;28;20474;-72
2022/04/14 03:40:55;;;;;;;9.50;6.67;;;11.50;73.80;;;;;;5015444;28;20464;-72
2022/04/14 03:43:23;;;;;;;9.30;7.00;;;11.50;73.80;;;;;;5018330;28;21022;-71
2022/04/14 03:45:51;;;;;;;10.57;6.67;;;11.50;73.70;;;;;;5012916;28;20560;-72
2022/04/14 03:48:18;;;;;;;17.70;7.27;;;11.50;73.70;;;;;;5015451;28;20460;-71
2022/04/14 03:50:46;;;;;;;12.67;7.90;;;11.50;73.60;;;;;;5030646;28;20584;-71
2022/04/14 03:53:14;;;;;;;12.93;7.50;;;11.40;73.60;;;;;;5014108;28;21235;-72
2022/04/14 03:55:42;;;;;;;10.80;7.77;;;11.40;73.60;;;;;;5018082;28;20514;-71
2022/04/14 03:58:11;;;;;;;11.27;7.07;;;11.40;73.60;;;;;;5016129;28;20471;-71
2022/04/14 04:00:39;;;;;;;20.63;12.03;;;11.40;73.70;;;;;;5010867;28;20484;-71
2022/04/14 04:03:09;;;;;;;16.87;9.10;;;11.40;73.80;;;;;;5016046;28;20897;-71
2022/04/14 04:05:38;;;;;;;10.67;7.00;;;11.40;73.80;;;;;;5016006;28;20460;-71
2022/04/14 04:08:06;;;;;;;16.93;7.30;;;11.40;73.70;;;;;;5015785;28;20456;-72
2022/04/14 04:10:35;;;;;;;14.27;9.90;;;11.40;73.50;;;;;;5017911;28;20487;-72
2022/04/14 04:13:03;;;;;;;13.87;10.50;;;11.40;73.50;;;;;;5019190;28;20483;-72
2022/04/14 04:15:34;;;;;;;21.90;11.00;;;11.30;73.40;;;;;;5017280;28;20526;-72
2022/04/14 04:18:04;;;;;;;17.27;11.47;;;11.30;73.40;;;;;;5015071;28;20454;-72
2022/04/14 04:20:32;;;;;;;18.30;12.73;;;11.30;73.40;;;;;;5018139;28;20498;-71
2022/04/14 04:23:03;;;;;;;16.70;9.73;;;11.30;73.40;;;;;;5015617;28;20515;-71
2022/04/14 04:25:32;;;;;;;13.87;8.67;;;11.20;73.40;;;;;;5011500;28;20471;-71
2022/04/14 04:28:00;;;;;;;11.63;7.77;;;11.20;73.30;;;;;;5012056;28;20555;-71
2022/04/14 04:30:28;;;;;;;10.87;6.77;;;11.20;73.20;;;;;;5012150;28;20512;-71
2022/04/14 04:32:57;;;;;;;9.47;7.00;;;11.10;73.20;;;;;;5015075;28;20479;-71
2022/04/14 04:35:26;;;;;;;15.97;6.27;;;11.10;73.20;;;;;;5016538;28;21043;-72
2022/04/14 04:37:53;;;;;;;21.90;7.10;;;11.00;73.30;;;;;;5017220;28;20456;-72
2022/04/14 04:40:21;;;;;;;11.67;7.37;;;11.00;73.30;;;;;;5018392;28;20479;-72
2022/04/14 04:42:49;;;;;;;11.80;7.17;;;11.00;73.40;;;;;;5016279;28;20550;-72
2022/04/14 04:45:17;;;;;;;10.47;7.03;;;11.00;73.40;;;;;;5014232;28;20468;-74
2022/04/14 04:47:45;;;;;;;11.43;6.87;;;11.00;73.50;;;;;;5012033;28;20962;-72
2022/04/14 04:50:14;;;;;;;11.07;6.60;;;11.00;73.60;;;;;;5012396;28;20483;-72
2022/04/14 04:52:42;;;;;;;9.63;7.03;;;11.00;73.50;;;;;;5013514;28;20475;-71
2022/04/14 04:55:11;;;;;;;11.33;6.90;;;11.10;73.50;;;;;;5013956;28;20460;-71
2022/04/14 04:57:39;;;;;;;10.90;6.40;;;11.10;73.60;;;;;;5012805;28;20886;-71
2022/04/14 05:00:08;;;;;;;13.07;8.00;;;11.10;73.60;;;;;;5009890;28;21198;-71
2022/04/14 05:02:36;;;;;;;9.90;6.07;;;11.20;73.60;;;;;;5012346;28;20492;-71
2022/04/14 05:05:05;;;;;;;13.23;6.90;;;11.30;73.90;;;;;;5012723;28;20900;-71
2022/04/14 05:07:34;;;;;;;9.60;7.13;;;11.50;74.40;;;;;;5012649;28;20479;-70
2022/04/14 05:10:02;;;;;;;13.53;7.20;;;11.80;74.50;;;;;;5010784;28;20550;-71
2022/04/14 05:12:30;;;;;;;12.80;7.33;;;12.10;74.30;;;;;;5015453;28;20498;-71
2022/04/14 05:14:58;;;;;;;12.30;6.27;;;12.50;74.30;;;;;;5018115;28;20456;-72
2022/04/14 05:17:26;;;;;;;13.30;7.57;;;12.90;73.90;;;;;;5015663;28;20908;-71
2022/04/14 05:19:54;;;;;;;12.67;6.73;;;13.40;73.50;;;;;;5017447;28;20461;-71
2022/04/14 05:22:21;;;;;;;8.53;6.23;;;13.80;73.20;;;;;;5013874;28;20526;-71
2022/04/14 05:24:51;;;;;;;12.10;6.57;;;14.30;72.30;;;;;;5014919;28;20463;-71
2022/04/14 05:27:19;;;;;;;12.30;6.80;;;14.60;71.50;;;;;;5014576;28;20889;-72
2022/04/14 05:29:47;;;;;;;10.43;7.00;;;14.80;70.40;;;;;;5014114;28;20481;-71
2022/04/14 05:32:15;;;;;;;12.37;6.13;;;14.60;69.60;;;;;;5012410;28;20481;-71
2022/04/14 05:34:43;;;;;;;18.43;6.70;;;14.30;69.30;;;;;;5014966;28;20487;-71
2022/04/14 05:37:11;;;;;;;13.23;7.10;;;14.00;69.50;;;;;;5010448;28;20452;-71
2022/04/14 05:39:39;;;;;;;16.33;12.10;;;13.80;69.80;;;;;;5014106;28;21159;-70
2022/04/14 05:42:08;;;;;;;22.10;13.00;;;13.70;70.40;;;;;;5014723;28;20567;-71
2022/04/14 05:44:36;;;;;;;14.07;10.70;;;13.80;70.30;;;;;;5016468;28;20464;-71
2022/04/14 05:47:05;;;;;;;18.03;8.80;;;13.70;70.10;;;;;;5013785;28;20480;-73
2022/04/14 05:49:34;;;;;;;12.03;7.13;;;13.60;69.90;;;;;;5017529;28;20531;-72
2022/04/14 05:52:02;;;;;;;20.70;8.50;;;13.40;69.80;;;;;;5028253;28;20492;-70
2022/04/14 05:54:30;;;;;;;15.53;8.07;;;13.20;70.10;;;;;;5016610;28;20473;-71
2022/04/14 05:56:58;;;;;;;13.83;8.67;;;13.10;70.30;;;;;;5014095;28;20468;-69
2022/04/14 05:59:27;;;;;;;13.97;9.37;;;13.10;70.60;;;;;;5017395;28;20451;-71
2022/04/14 06:01:55;;;;;;;18.93;10.03;;;13.00;70.80;;;;;;5015511;28;21004;-71
2022/04/14 06:04:23;;;;;;;19.87;11.20;;;13.00;70.90;;;;;;5013957;28;20459;-70
2022/04/14 06:06:51;;;;;;;18.47;12.17;;;13.00;71.10;;;;;;5008675;28;20449;-70
2022/04/14 06:09:19;;;;;;;19.10;12.10;;;13.00;71.40;;;;;;5017428;28;20932;-70
2022/04/14 06:11:47;;;;;;;17.83;12.03;;;13.00;71.60;;;;;;5019002;28;20500;-71
2022/04/14 06:14:15;;;;;;;19.30;9.80;;;13.00;71.80;;;;;;5014431;28;20464;-70
2022/04/14 06:16:44;;;;;;;12.73;9.97;;;13.00;71.90;;;;;;5014971;28;20484;-71
2022/04/14 06:19:12;;;;;;;12.50;9.30;;;13.00;72.10;;;;;;5020795;28;21216;-70
2022/04/14 06:21:40;;;;;;;15.20;10.10;;;13.00;72.30;;;;;;5015503;28;21251;-69
2022/04/14 06:24:08;;;;;;;15.33;9.20;;;13.00;72.50;;;;;;5016051;28;20451;-69
2022/04/14 06:26:35;;;;;;;18.03;8.87;;;13.10;72.80;;;;;;5032090;28;20452;-70
2022/04/14 06:29:04;;;;;;;16.10;9.37;;;13.10;73.00;;;;;;5020405;28;20458;-70
2022/04/14 06:31:32;;;;;;;15.30;9.67;;;13.20;73.20;;;;;;5014193;28;20476;-70
2022/04/14 06:34:02;;;;;;;14.57;9.17;;;13.20;73.40;;;;;;5013972;28;21076;-71
2022/04/14 06:36:29;;;;;;;15.13;9.73;;;13.30;73.60;;;;;;5018345;28;20457;-70
2022/04/14 06:38:57;;;;;;;16.20;9.30;;;13.30;73.70;;;;;;5015107;28;20472;-70
2022/04/14 06:41:26;;;;;;;11.60;8.33;;;13.40;73.90;;;;;;5018564;28;20544;-70
2022/04/14 06:43:54;;;;;;;16.73;9.47;;;13.50;74.00;;;;;;5018143;28;20463;-69
2022/04/14 06:46:27;;;;;;;13.70;9.33;;;13.50;74.10;;;;;;5019737;28;20527;-70
2022/04/14 06:48:57;;;;;;;15.37;8.90;;;13.60;74.20;;;;;;5023552;28;20496;-70
2022/04/14 06:51:26;;;;;;;12.00;8.37;;;13.60;74.40;;;;;;5017782;28;20490;-70
2022/04/14 06:53:54;;;;;;;13.67;8.40;;;13.70;74.60;;;;;;5019577;28;20572;-71
2022/04/14 06:56:22;;;;;;;17.13;9.93;;;13.80;74.60;;;;;;5018505;28;20804;-71
2022/04/14 06:58:49;;;;;;;11.77;8.80;;;13.90;74.80;;;;;;5019169;28;20460;-71
2022/04/14 07:01:24;;;;;;;16.50;11.07;;;14.00;74.80;;;;;;5018556;28;21232;-71
2022/04/14 07:03:52;;;;;;;19.00;10.43;;;14.00;74.80;;;;;;5017597;28;20952;-71
2022/04/14 07:06:20;;;;;;;19.87;10.60;;;14.10;74.90;;;;;;5013424;28;21216;-71
2022/04/14 07:08:50;;;;;;;19.03;11.73;;;14.20;75.00;;;;;;5009421;28;20536;-71
2022/04/14 07:11:18;;;;;;;19.40;11.70;;;14.30;75.10;;;;;;5018604;28;20476;-71
2022/04/14 07:13:46;;;;;;;17.80;12.23;;;14.30;75.10;;;;;;5020824;28;20472;-71
2022/04/14 07:16:14;;;;;;;17.57;12.00;;;14.40;75.10;;;;;;5017079;28;20583;-70
2022/04/14 07:18:42;;;;;;;19.33;12.57;;;14.40;75.50;;;;;;5015275;28;20467;-71
2022/04/14 07:21:10;;;;;;;16.13;11.93;;;14.50;75.40;;;;;;5013619;28;20469;-71
2022/04/14 07:23:38;;;;;;;17.50;11.40;;;14.50;75.50;;;;;;5012156;28;20939;-71
2022/04/14 07:26:07;;;;;;;14.50;10.03;;;14.50;75.60;;;;;;5022440;28;20477;-70
2022/04/14 07:28:35;;;;;;;20.23;11.53;;;14.60;75.60;;;;;;5022991;28;20469;-70
2022/04/14 07:31:03;;;;;;;15.63;11.60;;;14.60;75.60;;;;;;5025631;28;21604;-71
2022/04/14 07:33:31;;;;;;;15.80;10.77;;;14.70;75.50;;;;;;5024666;28;20499;-70
2022/04/14 07:35:59;;;;;;;16.30;12.10;;;14.70;75.50;;;;;;5025639;28;20528;-71
2022/04/14 07:38:38;;;;;;;18.50;12.60;;;14.70;75.70;;;;;;5023980;28;20472;-71
2022/04/14 07:41:08;;;;;;;16.90;12.03;;;14.80;75.70;;;;;;5023687;28;20492;-70
2022/04/14 07:43:35;;;;;;;21.40;14.10;;;14.80;75.80;;;;;;5018349;28;20530;-71
2022/04/14 07:46:04;;;;;;;19.47;13.13;;;14.80;76.00;;;;;;5019576;28;20484;-71
2022/04/14 07:48:32;;;;;;;19.97;13.80;;;14.90;76.00;;;;;;5016575;28;20452;-71
2022/04/14 07:51:01;;;;;;;21.30;14.50;;;14.90;76.10;;;;;;5017767;28;20522;-71
2022/04/14 07:53:29;;;;;;;27.83;17.00;;;15.00;76.10;;;;;;5019402;28;20444;-72
2022/04/14 07:55:57;;;;;;;24.83;15.90;;;15.00;76.60;;;;;;5021098;28;20920;-70
2022/04/14 07:58:26;;;;;;;23.97;16.67;;;15.10;76.40;;;;;;5016753;28;20468;-71
2022/04/14 08:00:55;;;;;;;25.83;18.00;;;15.10;76.50;;;;;;5017250;28;20842;-70
2022/04/14 08:03:23;;;;;;;26.83;19.10;;;15.20;76.50;;;;;;5018936;28;20468;-71
2022/04/14 08:05:51;;;;;;;21.47;17.60;;;15.20;76.60;;;;;;5017945;28;20468;-71
2022/04/14 08:08:21;;;;;;;24.77;18.47;;;15.20;77.10;;;;;;5024617;28;20459;-69
2022/04/14 08:10:50;;;;;;;25.53;17.37;;;15.30;76.90;;;;;;5021398;28;21174;-69
2022/04/14 08:13:19;;;;;;;24.57;17.60;;;15.30;76.90;;;;;;5023949;28;20501;-71
2022/04/14 08:15:50;;;;;;;23.60;17.23;;;15.30;76.90;;;;;;5015291;28;20478;-71
2022/04/14 08:18:18;;;;;;;23.10;15.53;;;15.40;76.80;;;;;;5018404;28;20450;-71
2022/04/14 08:20:46;;;;;;;25.53;18.07;;;15.40;76.90;;;;;;5018265;28;21006;-71
2022/04/14 08:23:17;;;;;;;32.47;17.87;;;15.50;76.80;;;;;;5013634;28;20440;-71
2022/04/14 08:25:46;;;;;;;28.00;20.00;;;15.60;76.80;;;;;;5015427;28;20457;-71
2022/04/14 08:28:34;;;;;;;27.37;18.17;;;15.60;76.80;;;;;;5017536;28;20476;-70
2022/04/14 08:31:04;;;;;;;26.63;19.20;;;15.70;76.70;;;;;;5017584;28;21008;-70
2022/04/14 08:33:32;;;;;;;33.00;19.60;;;15.80;76.60;;;;;;5015454;28;20476;-70
2022/04/14 08:36:00;;;;;;;22.57;18.20;;;15.90;76.60;;;;;;5019236;28;20452;-70
2022/04/14 08:38:28;;;;;;;27.23;18.33;;;16.00;76.70;;;;;;5013408;28;20448;-70
2022/04/14 08:41:00;;;;;;;28.47;18.20;;;16.10;76.50;;;;;;5015879;28;20460;-71
2022/04/14 08:43:47;;;;;;;25.60;18.63;;;16.20;76.30;;;;;;5023826;28;20441;-71
2022/04/14 08:46:20;;;;;;;25.00;18.30;;;16.30;76.20;;;;;;5014263;28;20466;-70
2022/04/14 08:48:51;;;;;;;26.03;18.20;;;16.40;76.00;;;;;;5019370;28;20472;-71
2022/04/14 08:51:21;;;;;;;24.35;17.85;;;16.40;75.90;;;;;;5019823;28;20483;-71
2022/04/14 08:53:50;;;;;;;27.57;18.10;;;16.50;75.70;;;;;;5015611;28;20898;-71
2022/04/14 08:56:23;;;;;;;24.40;18.47;;;16.60;75.50;;;;;;5018046;28;20525;-71
2022/04/14 08:58:54;;;;;;;23.30;18.20;;;16.60;75.40;;;;;;5016120;28;20445;-70
2022/04/14 09:01:26;;;;;;;23.80;17.73;;;16.60;75.30;;;;;;5015811;28;20987;-70
2022/04/14 09:03:56;;;;;;;24.47;17.47;;;16.70;75.20;;;;;;5016995;28;20459;-70
2022/04/14 09:06:27;;;;;;;22.47;17.93;;;16.80;75.10;;;;;;5019068;28;20452;-71
2022/04/14 09:08:57;;;;;;;24.83;17.70;;;16.80;74.80;;;;;;5022066;28;20505;-71
2022/04/14 09:11:26;;;;;;;28.43;18.97;;;16.90;74.70;;;;;;5014726;28;20495;-71
2022/04/14 09:13:55;;;;;;;28.67;17.70;;;16.90;74.50;;;;;;5020611;28;20480;-70
2022/04/14 09:16:25;;;;;;;26.73;18.77;;;16.90;74.50;;;;;;5015822;28;20469;-70
2022/04/14 09:18:54;;;;;;;25.93;17.50;;;17.00;74.40;;;;;;5016423;28;20462;-70
2022/04/14 09:21:22;;;;;;;25.43;17.57;;;17.10;74.30;;;;;;5014369;28;20503;-71
2022/04/14 09:23:51;;;;;;;24.50;19.23;;;17.10;73.70;;;;;;5015426;28;20457;-70
2022/04/14 09:26:23;;;;;;;26.63;18.73;;;17.10;73.80;;;;;;5015438;28;20452;-70
2022/04/14 09:29:07;;;;;;;24.93;18.00;;;17.10;73.70;;;;;;5016884;28;21078;-70
2022/04/14 09:31:48;;;;;;;26.37;18.30;;;17.10;73.70;;;;;;5012151;28;20849;-70
2022/04/14 09:34:18;;;;;;;23.83;16.23;;;17.10;73.70;;;;;;5015487;28;20466;-71
2022/04/14 09:37:05;;;;;;;26.40;18.40;;;17.10;73.60;;;;;;5017476;28;21215;-71
2022/04/14 09:39:50;;;;;;;22.90;17.77;;;17.20;73.30;;;;;;5017548;28;20514;-71
2022/04/14 09:42:20;;;;;;;25.90;17.13;;;17.20;72.80;;;;;;5020443;28;20465;-71
2022/04/14 09:44:49;;;;;;;29.07;17.70;;;17.20;73.00;;;;;;5012413;28;20483;-71
2022/04/14 09:47:39;;;;;;;22.57;17.07;;;17.30;73.00;;;;;;5011242;28;20484;-70
2022/04/14 09:50:25;;;;;;;25.17;18.30;;;17.30;73.00;;;;;;5014032;28;20453;-71
2022/04/14 09:53:09;;;;;;;24.33;17.60;;;17.40;72.90;;;;;;5013435;28;21209;-71
2022/04/14 09:55:38;;;;;;;26.40;17.30;;;17.50;72.40;;;;;;5015579;28;20525;-71
2022/04/14 09:58:09;;;;;;;26.33;18.07;;;17.50;72.60;;;;;;5016175;28;20463;-71
2022/04/14 10:00:40;;;;;;;24.67;18.17;;;17.60;72.40;;;;;;5010850;28;20464;-69
2022/04/14 10:03:11;;;;;;;25.93;18.53;;;17.60;72.10;;;;;;5016433;28;20443;-71
2022/04/14 10:05:40;;;;;;;25.97;19.23;;;17.70;71.90;;;;;;5013899;28;20984;-71
2022/04/14 10:08:09;;;;;;;26.03;17.97;;;17.80;71.90;;;;;;5002059;28;20464;-70
2022/04/14 10:10:39;;;;;;;24.13;17.70;;;17.80;71.70;;;;;;5002497;28;20480;-69
2022/04/14 10:13:08;;;;;;;20.43;15.90;;;17.80;71.40;;;;;;5016115;28;20539;-69
2022/04/14 10:15:37;;;;;;;30.50;19.03;;;17.90;71.60;;;;;;5015620;28;20483;-69
2022/04/14 10:18:08;;;;;;;26.63;17.40;;;18.00;71.50;;;;;;5012904;28;20456;-69
2022/04/14 10:20:39;;;;;;;24.23;17.50;;;18.00;71.20;;;;;;5013670;28;21260;-70
2022/04/14 10:23:09;;;;;;;27.00;19.60;;;18.10;71.10;;;;;;5014425;28;20456;-71
2022/04/14 10:25:38;;;;;;;25.07;18.30;;;18.10;71.10;;;;;;5014270;28;20464;-69
2022/04/14 10:28:08;;;;;;;25.63;18.10;;;18.20;71.00;;;;;;5012176;28;21368;-70
2022/04/14 10:30:36;;;;;;;26.53;18.37;;;18.30;70.70;;;;;;5009224;28;20473;-71
2022/04/14 10:33:04;;;;;;;27.77;17.73;;;18.30;70.70;;;;;;5013499;28;20497;-70
2022/04/14 10:35:33;;;;;;;25.70;16.77;;;18.40;70.50;;;;;;5018413;28;20458;-70
2022/04/14 10:38:07;;;;;;;25.40;17.07;;;18.40;70.40;;;;;;5018097;28;20453;-70
2022/04/14 10:40:37;;;;;;;24.73;17.10;;;18.50;70.40;;;;;;5012473;28;20475;-71
2022/04/14 10:43:09;;;;;;;24.37;16.97;;;18.60;70.50;;;;;;5017357;28;20488;-70
2022/04/14 10:45:48;;;;;;;26.33;18.50;;;18.60;70.20;;;;;;5016867;28;20475;-70
2022/04/14 10:48:30;;;;;;;25.77;16.63;;;18.70;69.80;;;;;;5017726;28;20513;-70
2022/04/14 10:51:22;;;;;;;25.07;17.80;;;18.70;70.00;;;;;;5019513;28;20447;-71
2022/04/14 10:53:56;;;;;;;23.90;16.37;;;18.70;69.60;;;;;;5017918;28;20480;-71
2022/04/14 10:56:43;;;;;;;21.87;16.40;;;18.80;69.50;;;;;;5019561;28;20462;-71
2022/04/14 10:59:12;;;;;;;25.07;16.27;;;18.80;69.30;;;;;;5018484;28;20448;-70
2022/04/14 11:01:54;;;;;;;20.80;17.07;;;18.90;69.20;;;;;;5013788;28;20492;-69
2022/04/14 11:04:31;;;;;;;24.87;16.00;;;18.90;69.20;;;;;;5015618;28;20459;-71
2022/04/14 11:07:01;;;;;;;24.00;17.37;;;19.00;69.30;;;;;;5011273;28;20942;-70
2022/04/14 11:09:48;;;;;;;26.80;18.90;;;19.10;68.90;;;;;;5010955;28;20509;-70
2022/04/14 11:12:19;;;;;;;23.57;17.43;;;19.10;68.80;;;;;;5016525;28;20936;-70
2022/04/14 11:14:49;;;;;;;29.30;18.03;;;19.10;68.90;;;;;;5012641;28;20867;-70
2022/04/14 11:18:00;;;;;;;27.33;18.27;;;19.10;69.00;;;;;;5015839;28;20479;-71
2022/04/14 11:20:54;;;;;;;22.83;17.23;;;19.00;69.00;;;;;;5014272;28;20467;-71
2022/04/14 11:23:26;;;;;;;25.40;16.33;;;19.10;69.00;;;;;;5015897;28;20460;-70
2022/04/14 11:26:07;;;;;;;23.97;16.97;;;19.10;69.20;;;;;;5020769;28;20457;-70
2022/04/14 11:28:37;;;;;;;20.33;15.40;;;19.10;69.40;;;;;;5019621;28;21209;-69
2022/04/14 11:31:21;;;;;;;20.93;15.07;;;19.20;69.20;;;;;;5019959;28;20483;-70
2022/04/14 11:33:50;;;;;;;22.10;15.00;;;19.20;68.80;;;;;;5018138;28;20515;-70
2022/04/14 11:36:19;;;;;;;22.63;15.83;;;19.20;68.80;;;;;;5015398;28;20462;-70
2022/04/14 11:39:01;;;;;;;22.70;16.80;;;19.20;68.70;;;;;;5018901;28;20470;-70
2022/04/14 11:41:39;;;;;;;20.73;16.00;;;19.20;68.70;;;;;;5015206;28;20493;-70
2022/04/14 11:44:09;;;;;;;20.80;15.20;;;19.20;68.80;;;;;;5014327;28;20479;-70
2022/04/14 11:46:38;;;;;;;22.10;14.40;;;19.30;68.70;;;;;;5012473;28;20474;-69
2022/04/14 11:49:07;;;;;;;22.30;15.43;;;19.20;68.70;;;;;;5018369;28;20497;-71
2022/04/14 11:51:42;;;;;;;19.00;15.17;;;19.30;68.70;;;;;;5017709;28;20469;-70
2022/04/14 11:54:11;;;;;;;27.60;16.10;;;19.30;68.50;;;;;;5019284;28;20479;-71
2022/04/14 11:57:06;;;;;;;18.83;15.57;;;19.30;68.70;;;;;;5023281;28;20516;-71
2022/04/14 11:59:36;;;;;;;23.53;16.47;;;19.40;68.50;;;;;;5021426;28;20447;-69
2022/04/14 12:02:06;;;;;;;24.40;16.00;;;19.50;68.30;;;;;;5015083;28;20492;-71
2022/04/14 12:04:36;;;;;;;20.87;14.30;;;19.40;68.30;;;;;;5011183;28;20964;-70
2022/04/14 12:07:04;;;;;;;21.23;15.83;;;19.40;68.40;;;;;;5015061;28;20461;-70
2022/04/14 12:09:32;;;;;;;19.40;14.47;;;19.50;68.30;;;;;;5017493;28;20467;-70
2022/04/14 12:12:12;;;;;;;17.53;13.73;;;19.50;68.30;;;;;;5017654;28;20486;-70
2022/04/14 12:14:44;;;;;;;24.00;15.20;;;19.60;68.20;;;;;;5013818;28;20536;-70
2022/04/14 12:17:13;;;;;;;18.60;15.63;;;19.60;68.00;;;;;;5015479;28;20499;-70
2022/04/14 12:19:43;;;;;;;20.30;15.70;;;19.60;68.00;;;;;;5012315;28;20473;-69
2022/04/14 12:22:12;;;;;;;19.60;14.53;;;19.60;67.90;;;;;;5015626;28;20483;-69
2022/04/14 12:24:47;;;;;;;23.63;13.97;;;19.60;67.80;;;;;;5017795;28;20462;-70
2022/04/14 12:27:19;;;;;;;18.70;13.47;;;19.60;67.80;;;;;;5024219;28;20495;-70
2022/04/14 12:29:47;;;;;;;19.60;12.70;;;19.60;67.60;;;;;;5018168;28;20460;-72
2022/04/14 12:32:16;;;;;;;19.13;12.50;;;19.60;67.90;;;;;;5014692;28;20556;-70
2022/04/14 12:34:45;;;;;;;16.03;11.87;;;19.70;67.90;;;;;;5014727;28;20505;-70
2022/04/14 12:37:15;;;;;;;15.87;13.27;;;19.80;67.80;;;;;;5017266;28;20469;-71
2022/04/14 12:39:59;;;;;;;18.00;13.10;;;19.80;67.70;;;;;;5013028;28;20919;-69
2022/04/14 12:42:31;;;;;;;22.07;14.00;;;19.80;67.60;;;;;;5014382;28;20479;-69
2022/04/14 12:45:05;;;;;;;17.80;12.60;;;19.70;67.60;;;;;;5019593;28;20515;-69
2022/04/14 12:47:34;;;;;;;18.87;13.60;;;19.70;67.70;;;;;;5000308;28;21180;-71
2022/04/14 12:50:05;;;;;;;16.73;13.20;;;19.70;67.70;;;;;;4997943;28;20476;-71